Time;durP1;ratioP1;P1;durP2;ratioP2;P2;SDS_P1;SDS_P2;PMS_P1;PMS_P2;Temp;Humidity;BMP_temperature;BMP_pressure;BME280_temperature;BME280_humidity;BME280_pressure;Samples;Min_cycle;Max_cycle;Signal;HPM_P1;HPM_P2
2023/04/08 00:00:18;;;;;;;27.00;14.85;;;;;;;7.88;68.79;100799.22;4934888;29;20051;-74
2023/04/08 00:02:46;;;;;;;23.77;13.88;;;;;;;7.85;68.55;100816.06;4934921;29;20044;-74
2023/04/08 00:05:14;;;;;;;29.85;14.77;;;;;;;7.84;68.66;100814.44;4934412;29;20040;-74
2023/04/08 00:07:43;;;;;;;28.42;14.43;;;;;;;7.76;69.52;100818.44;4934457;29;20521;-72
2023/04/08 00:10:11;;;;;;;25.77;13.85;;;;;;;7.75;68.50;100820.34;4945534;29;20075;-72
2023/04/08 00:12:38;;;;;;;29.35;14.57;;;;;;;7.80;68.37;100819.56;4934621;29;20510;-73
2023/04/08 00:15:06;;;;;;;29.25;14.70;;;;;;;7.84;67.80;100814.44;4934375;29;20059;-73
2023/04/08 00:17:35;;;;;;;26.45;15.23;;;;;;;7.86;67.85;100813.09;4934144;29;20052;-73
2023/04/08 00:20:04;;;;;;;26.60;14.68;;;;;;;7.84;67.53;100814.44;4934499;29;20048;-73
2023/04/08 00:22:32;;;;;;;25.85;14.90;;;;;;;7.84;66.97;100822.59;4934406;29;20051;-72
2023/04/08 00:25:01;;;;;;;29.55;14.50;;;;;;;7.85;67.23;100813.34;4934795;29;20047;-73
2023/04/08 00:27:29;;;;;;;27.73;14.20;;;;;;;7.87;66.63;100809.28;4933853;29;20056;-73
2023/04/08 00:29:58;;;;;;;29.17;14.43;;;;;;;7.88;66.34;100813.66;4937817;29;20053;-73
2023/04/08 00:32:27;;;;;;;23.95;13.70;;;;;;;7.97;66.49;100805.84;4921824;29;20052;-73
2023/04/08 00:34:55;;;;;;;26.90;13.65;;;;;;;8.01;66.80;100815.16;4920159;29;20055;-73
2023/04/08 00:37:23;;;;;;;26.77;14.35;;;;;;;7.88;67.28;100804.69;4921919;29;20073;-72
2023/04/08 00:39:53;;;;;;;31.20;14.80;;;;;;;7.89;68.61;100807.16;4921900;29;20063;-73
2023/04/08 00:42:21;;;;;;;24.65;14.13;;;;;;;7.85;68.13;100802.44;4939951;29;20047;-72
2023/04/08 00:44:48;;;;;;;26.40;14.43;;;;;;;7.87;68.37;100800.31;4939375;29;20084;-72
2023/04/08 00:47:19;;;;;;;24.35;13.68;;;;;;;7.86;67.16;100796.75;4919687;29;20058;-73
2023/04/08 00:49:48;;;;;;;27.48;14.30;;;;;;;7.84;68.29;100801.66;4940999;29;20052;-73
2023/04/08 00:52:16;;;;;;;27.98;13.88;;;;;;;7.80;68.43;100797.78;4940722;29;20058;-73
2023/04/08 00:54:44;;;;;;;21.67;13.82;;;;;;;7.72;68.56;100806.41;4923733;29;20055;-74
2023/04/08 00:57:12;;;;;;;29.60;13.88;;;;;;;7.73;68.07;100797.97;4940455;29;20055;-73
2023/04/08 00:59:40;;;;;;;27.83;13.38;;;;;;;7.55;69.18;100806.47;4940838;29;20044;-73
2023/04/08 01:02:38;;;;;;;33.13;14.18;;;;;;;7.37;71.60;100802.97;4940393;29;20040;-73
2023/04/08 01:05:37;;;;;;;27.05;15.13;;;;;;;7.32;70.43;100801.03;4932662;29;20149;-73
2023/04/08 01:08:09;;;;;;;25.10;13.40;;;;;;;7.37;70.04;100811.16;4940461;29;20403;-73
2023/04/08 01:10:44;;;;;;;25.92;13.15;;;;;;;7.43;69.96;100807.41;4940384;29;20397;-73
2023/04/08 01:13:16;;;;;;;25.60;13.80;;;;;;;7.47;70.58;100796.84;4940652;29;20426;-73
2023/04/08 01:15:45;;;;;;;27.63;13.90;;;;;;;7.28;71.14;100801.78;4940267;29;20040;-73
2023/04/08 01:18:16;;;;;;;28.23;14.25;;;;;;;7.33;71.04;100799.94;4923345;29;20067;-73
2023/04/08 01:20:45;;;;;;;25.48;13.60;;;;;;;7.32;71.68;100802.91;4940139;29;20054;-73
2023/04/08 01:23:34;;;;;;;30.27;13.15;;;;;;;7.41;71.51;100806.84;4940301;29;20502;-73
2023/04/08 01:26:02;;;;;;;25.67;13.00;;;;;;;7.48;71.50;100796.59;4940346;29;20057;-73
2023/04/08 01:28:32;;;;;;;32.03;14.48;;;;;;;7.43;71.96;100798.44;4938922;29;20047;-73
2023/04/08 01:31:01;;;;;;;26.45;15.13;;;;;;;7.25;74.07;100806.66;4940466;29;20478;-73
2023/04/08 01:33:30;;;;;;;31.73;14.68;;;;;;;7.16;73.83;100804.63;4940294;29;20055;-73
2023/04/08 01:36:00;;;;;;;28.77;14.05;;;;;;;7.15;74.52;100798.38;4940134;29;20054;-73
2023/04/08 01:38:30;;;;;;;24.73;13.10;;;;;;;7.09;73.65;100804.81;4939744;29;20062;-73
2023/04/08 01:40:59;;;;;;;26.95;14.43;;;;;;;7.11;74.40;100802.66;4938506;29;20514;-73
2023/04/08 01:43:31;;;;;;;21.65;12.43;;;;;;;7.15;73.75;100801.09;4935742;29;20059;-73
2023/04/08 01:46:00;;;;;;;25.25;12.57;;;;;;;7.06;74.23;100799.84;4935959;29;20044;-73
2023/04/08 01:48:29;;;;;;;24.67;13.32;;;;;;;7.08;74.36;100801.25;4937176;29;20125;-73
2023/04/08 01:50:59;;;;;;;24.95;13.50;;;;;;;7.02;75.02;100798.69;4935964;29;20055;-73
2023/04/08 01:53:26;;;;;;;28.52;13.95;;;;;;;6.94;74.94;100797.25;4936821;29;20121;-73
2023/04/08 01:56:00;;;;;;;24.58;13.27;;;;;;;6.89;75.07;100800.72;4936751;29;20106;-73
2023/04/08 01:58:33;;;;;;;26.35;13.73;;;;;;;6.98;74.66;100804.66;4929947;29;20051;-73
2023/04/08 02:01:02;;;;;;;27.58;15.00;;;;;;;7.11;74.17;100798.06;4936027;29;20048;-73
2023/04/08 02:03:31;;;;;;;26.92;14.35;;;;;;;7.11;75.20;100797.22;4936928;29;20051;-73
2023/04/08 02:05:59;;;;;;;29.58;14.02;;;;;;;7.06;75.12;100805.31;4919461;29;20048;-73
2023/04/08 02:08:27;;;;;;;26.77;13.50;;;;;;;6.96;75.95;100808.72;4917908;29;20055;-74
2023/04/08 02:10:55;;;;;;;26.05;14.55;;;;;;;7.07;74.84;100802.34;4918050;29;20707;-73
2023/04/08 02:13:24;;;;;;;28.00;12.98;;;;;;;7.05;74.87;100807.22;4916745;29;20056;-73
2023/04/08 02:16:02;;;;;;;25.48;13.77;;;;;;;7.08;74.06;100794.97;4917913;29;20052;-73
2023/04/08 02:18:33;;;;;;;26.63;13.57;;;;;;;7.09;73.98;100789.28;4910971;29;20056;-73
2023/04/08 02:21:14;;;;;;;26.98;12.93;;;;;;;7.13;74.27;100805.94;4916725;29;20048;-73
2023/04/08 02:23:48;;;;;;;30.13;13.50;;;;;;;7.05;74.76;100798.22;4917289;29;20051;-73
2023/04/08 02:26:18;;;;;;;25.23;13.30;;;;;;;7.13;73.92;100800.50;4916174;29;20411;-73
2023/04/08 02:28:48;;;;;;;23.88;11.88;;;;;;;7.14;74.72;100810.34;4916592;29;20138;-73
2023/04/08 02:31:19;;;;;;;29.17;13.23;;;;;;;7.08;74.49;100811.31;4917630;29;20048;-73
2023/04/08 02:33:49;;;;;;;24.95;13.43;;;;;;;7.01;74.62;100813.38;4917217;29;20118;-73
2023/04/08 02:36:17;;;;;;;21.67;12.25;;;;;;;7.03;74.45;100803.91;4917257;29;20419;-73
2023/04/08 02:38:49;;;;;;;20.73;12.45;;;;;;;7.10;74.73;100803.72;4917445;29;20048;-73
2023/04/08 02:41:17;;;;;;;24.17;12.43;;;;;;;7.05;74.33;100799.06;4915492;29;20052;-73
2023/04/08 02:43:46;;;;;;;26.45;13.23;;;;;;;7.09;75.07;100802.91;4914849;29;20048;-73
2023/04/08 02:46:14;;;;;;;23.63;11.60;;;;;;;7.12;74.77;100787.97;4915751;29;20506;-73
2023/04/08 02:48:42;;;;;;;25.10;13.63;;;;;;;7.23;74.59;100794.38;4915473;29;20060;-73
2023/04/08 02:51:10;;;;;;;23.30;12.13;;;;;;;7.23;74.12;100797.09;4916933;29;20353;-74
2023/04/08 02:53:38;;;;;;;23.27;12.68;;;;;;;7.26;73.75;100800.16;4916888;29;20491;-74
2023/04/08 02:56:09;;;;;;;26.55;13.15;;;;;;;7.15;74.16;100794.81;4915268;29;20492;-73
2023/04/08 02:58:37;;;;;;;24.10;12.80;;;;;;;7.15;74.78;100803.81;4916954;29;20052;-73
2023/04/08 03:01:06;;;;;;;25.48;14.57;;;;;;;7.14;74.46;100796.72;4912179;29;20049;-73
2023/04/08 03:03:34;;;;;;;24.92;13.15;;;;;;;7.09;73.89;100794.75;4912767;29;20063;-73
2023/04/08 03:06:02;;;;;;;23.80;13.00;;;;;;;7.06;73.72;100794.41;4915611;29;20083;-74
2023/04/08 03:08:31;;;;;;;29.02;13.07;;;;;;;6.94;74.78;100802.69;4917042;29;20479;-73
2023/04/08 03:10:59;;;;;;;26.20;12.63;;;;;;;7.02;73.63;100782.38;4916473;29;20056;-73
2023/04/08 03:13:28;;;;;;;21.15;12.68;;;;;;;7.06;73.66;100778.09;4916797;29;20052;-74
2023/04/08 03:15:56;;;;;;;28.00;13.63;;;;;;;7.22;73.35;100785.38;4916685;29;20479;-73
2023/04/08 03:18:24;;;;;;;22.75;12.07;;;;;;;7.33;72.58;100785.53;4916473;29;20040;-73
2023/04/08 03:20:52;;;;;;;25.00;13.30;;;;;;;7.37;72.14;100795.66;4916773;29;20055;-73
2023/04/08 03:23:20;;;;;;;25.52;12.38;;;;;;;7.55;70.51;100790.13;4916589;29;20380;-73
2023/04/08 03:25:48;;;;;;;24.77;13.05;;;;;;;7.68;70.14;100794.38;4916746;29;20502;-73
2023/04/08 03:28:16;;;;;;;32.17;12.90;;;;;;;7.69;69.23;100791.41;4916537;29;20040;-73
2023/04/08 03:30:44;;;;;;;23.25;12.63;;;;;;;7.70;71.17;100798.50;4916513;29;20067;-73
2023/04/08 03:33:12;;;;;;;21.95;12.20;;;;;;;7.64;71.20;100794.06;4916603;29;20040;-73
2023/04/08 03:35:40;;;;;;;23.98;13.07;;;;;;;7.63;72.18;100795.94;4915059;29;20059;-73
2023/04/08 03:38:08;;;;;;;24.00;12.40;;;;;;;7.60;70.62;100803.81;4916071;29;20051;-73
2023/04/08 03:40:35;;;;;;;25.98;12.43;;;;;;;7.66;70.17;100800.06;4916212;29;20048;-74
2023/04/08 03:43:05;;;;;;;24.60;12.82;;;;;;;7.72;69.80;100800.97;4915863;29;20044;-73
2023/04/08 03:45:33;;;;;;;24.08;12.02;;;;;;;7.75;69.73;100803.16;4916021;29;20052;-73
2023/04/08 03:48:01;;;;;;;22.13;11.93;;;;;;;7.79;70.26;100798.84;4916105;29;20047;-73
2023/04/08 03:50:29;;;;;;;24.95;12.93;;;;;;;7.75;69.92;100806.72;4915834;29;20492;-74
2023/04/08 03:52:57;;;;;;;26.40;13.13;;;;;;;7.91;69.40;100804.16;4916150;29;20075;-73
2023/04/08 03:55:25;;;;;;;28.60;12.85;;;;;;;7.87;68.94;100803.03;4915463;29;20052;-73
2023/04/08 03:57:52;;;;;;;28.38;12.70;;;;;;;7.72;69.96;100807.22;4915680;29;20064;-73
2023/04/08 04:00:20;;;;;;;24.85;13.13;;;;;;;7.71;69.91;100800.13;4915740;29;20504;-73
2023/04/08 04:02:48;;;;;;;24.35;12.05;;;;;;;7.72;69.01;100800.97;4915316;29;20048;-73
2023/04/08 04:05:16;;;;;;;26.30;13.40;;;;;;;7.70;69.33;100803.94;4925200;29;20047;-73
2023/04/08 04:07:44;;;;;;;27.42;13.27;;;;;;;7.74;69.37;100810.53;4932530;29;20110;-73
2023/04/08 04:10:12;;;;;;;25.45;13.52;;;;;;;7.92;69.59;100805.81;4934859;29;20475;-74
2023/04/08 04:12:40;;;;;;;25.92;12.40;;;;;;;7.94;67.75;100798.19;4934287;29;20043;-73
2023/04/08 04:15:08;;;;;;;24.38;13.23;;;;;;;8.05;68.36;100799.94;4934762;29;20376;-73
2023/04/08 04:17:36;;;;;;;25.77;13.75;;;;;;;8.22;68.26;100795.47;4917776;29;20062;-73
2023/04/08 04:20:05;;;;;;;27.27;13.15;;;;;;;8.18;67.58;100792.44;4934800;29;20047;-74
2023/04/08 04:22:33;;;;;;;22.85;12.23;;;;;;;8.23;67.65;100802.56;4934295;29;20055;-73
2023/04/08 04:25:00;;;;;;;23.13;12.40;;;;;;;8.18;67.26;100797.88;4934479;29;20050;-73
2023/04/08 04:27:28;;;;;;;27.08;12.88;;;;;;;8.19;68.49;100810.44;4934021;29;20051;-73
2023/04/08 04:29:56;;;;;;;28.88;13.82;;;;;;;8.37;67.75;100805.69;4934656;29;20044;-73
2023/04/08 04:32:24;;;;;;;28.90;13.27;;;;;;;8.42;66.68;100816.63;4934417;29;20040;-73
2023/04/08 04:34:52;;;;;;;27.73;12.70;;;;;;;8.41;67.06;100817.72;4934609;29;20055;-73
2023/04/08 04:37:20;;;;;;;24.60;12.98;;;;;;;8.38;67.43;100815.50;4932190;29;20067;-73
2023/04/08 04:39:48;;;;;;;24.58;12.77;;;;;;;8.36;67.78;100812.22;4934365;29;20044;-73
2023/04/08 04:42:16;;;;;;;20.75;11.32;;;;;;;8.31;67.58;100816.53;4934459;29;20479;-73
2023/04/08 04:44:44;;;;;;;23.67;13.55;;;;;;;8.41;67.28;100825.91;4934070;29;20495;-73
2023/04/08 04:47:12;;;;;;;25.50;13.40;;;;;;;8.25;67.56;100827.69;4933563;29;20044;-72
2023/04/08 04:49:39;;;;;;;24.77;13.88;;;;;;;8.14;68.24;100830.28;4934330;29;20047;-72
2023/04/08 04:52:07;;;;;;;25.55;13.93;;;;;;;8.11;68.65;100835.44;4934132;29;20044;-73
2023/04/08 04:54:35;;;;;;;26.00;13.63;;;;;;;8.15;68.87;100837.38;4934195;29;20048;-72
2023/04/08 04:57:03;;;;;;;27.02;14.30;;;;;;;7.99;69.00;100841.03;4934503;29;20040;-74
2023/04/08 04:59:31;;;;;;;26.77;13.35;;;;;;;8.02;70.16;100849.50;4934488;29;20056;-73
2023/04/08 05:01:59;;;;;;;28.80;13.52;;;;;;;7.95;68.95;100848.88;4932485;29;20048;-74
2023/04/08 05:04:27;;;;;;;25.52;12.95;;;;;;;7.97;70.09;100844.00;4933023;29;20490;-74
2023/04/08 05:06:57;;;;;;;26.98;12.75;;;;;;;8.07;68.42;100846.84;4934217;29;20051;-73
2023/04/08 05:09:25;;;;;;;24.50;12.68;;;;;;;8.14;68.77;100843.09;4934158;29;20051;-73
2023/04/08 05:11:53;;;;;;;25.73;13.57;;;;;;;8.19;69.33;100846.72;4933896;29;20039;-74
2023/04/08 05:14:21;;;;;;;28.38;14.07;;;;;;;8.18;68.90;100857.88;4934263;29;20052;-73
2023/04/08 05:16:49;;;;;;;26.38;13.88;;;;;;;8.26;68.03;100859.31;4935648;29;20047;-73
2023/04/08 05:19:17;;;;;;;28.05;14.45;;;;;;;8.25;67.38;100853.03;4937983;29;20059;-74
2023/04/08 05:21:45;;;;;;;25.45;13.88;;;;;;;8.54;67.25;100852.78;4936023;29;20066;-74
2023/04/08 05:24:13;;;;;;;25.00;13.27;;;;;;;8.73;66.52;100853.22;4937641;29;20051;-74
2023/04/08 05:26:41;;;;;;;25.05;13.02;;;;;;;8.86;65.90;100845.66;4936160;29;20043;-74
2023/04/08 05:29:08;;;;;;;25.77;12.93;;;;;;;9.04;64.97;100863.53;4937555;29;20040;-73
2023/04/08 05:31:36;;;;;;;22.23;12.38;;;;;;;9.18;65.09;100861.16;4937561;29;20063;-74
2023/04/08 05:34:04;;;;;;;25.08;13.48;;;;;;;9.37;63.19;100872.47;4937134;29;20047;-74
2023/04/08 05:36:32;;;;;;;25.92;13.18;;;;;;;9.48;63.31;100878.81;4937610;29;20046;-74
2023/04/08 05:39:00;;;;;;;25.83;14.35;;;;;;;9.37;64.42;100888.88;4937500;29;20048;-74
2023/04/08 05:41:30;;;;;;;28.23;14.82;;;;;;;9.23;66.10;100888.50;4937267;29;20048;-74
2023/04/08 05:43:58;;;;;;;26.13;13.65;;;;;;;9.00;66.44;100893.25;4937375;29;20051;-75
2023/04/08 05:46:26;;;;;;;26.08;13.85;;;;;;;8.87;67.47;100894.53;4920347;29;20055;-74
2023/04/08 05:48:54;;;;;;;24.75;12.70;;;;;;;9.09;66.91;100898.25;4956517;29;20062;-74
2023/04/08 05:51:21;;;;;;;26.95;13.77;;;;;;;9.28;65.87;100895.91;4956486;29;20051;-74
2023/04/08 05:53:50;;;;;;;24.80;13.27;;;;;;;9.23;65.99;100893.97;4956492;29;20047;-74
2023/04/08 05:56:17;;;;;;;27.05;14.48;;;;;;;9.22;67.84;100903.25;4955192;29;20152;-74
2023/04/08 05:58:46;;;;;;;28.60;14.43;;;;;;;9.19;66.33;100897.50;4956367;29;20047;-74
2023/04/08 06:01:13;;;;;;;27.15;13.82;;;;;;;9.00;66.73;100897.91;4955962;29;20047;-74
2023/04/08 06:03:41;;;;;;;23.48;13.73;;;;;;;9.42;66.91;100888.06;4954813;29;20043;-74
2023/04/08 06:06:13;;;;;;;30.73;14.63;;;;;;;9.65;64.39;100894.19;4955877;29;20066;-74
2023/04/08 06:08:41;;;;;;;26.73;13.75;;;;;;;9.91;62.55;100914.28;4946963;29;20074;-74
2023/04/08 06:11:09;;;;;;;25.45;13.82;;;;;;;10.11;61.37;100911.88;4934932;29;20506;-74
2023/04/08 06:13:37;;;;;;;25.38;14.23;;;;;;;10.09;61.79;100906.69;4934271;29;20047;-74
2023/04/08 06:16:12;;;;;;;26.60;12.80;;;;;;;9.98;61.84;100907.72;4934892;29;20051;-73
2023/04/08 06:18:41;;;;;;;27.55;14.93;;;;;;;9.75;63.64;100910.66;4935963;29;20048;-72
2023/04/08 06:21:09;;;;;;;33.53;16.02;;;;;;;10.03;64.26;100910.47;4935619;29;20043;-72
2023/04/08 06:23:37;;;;;;;26.77;14.30;;;;;;;10.16;63.57;100915.44;4935855;29;20043;-74
2023/04/08 06:26:05;;;;;;;26.42;15.35;;;;;;;9.92;62.76;100917.84;4935648;29;20047;-74
2023/04/08 06:28:33;;;;;;;30.23;15.27;;;;;;;10.03;62.64;100913.22;4935159;29;20048;-74
2023/04/08 06:31:00;;;;;;;29.27;14.80;;;;;;;10.17;62.82;100916.28;4936254;29;20499;-74
2023/04/08 06:33:28;;;;;;;29.73;15.57;;;;;;;10.32;62.11;100919.03;4918349;29;20062;-74
2023/04/08 06:36:06;;;;;;;28.02;15.27;;;;;;;10.46;61.70;100926.78;4935815;29;20050;-73
2023/04/08 06:38:35;;;;;;;28.98;15.55;;;;;;;10.88;60.82;100919.41;4936118;29;20048;-74
2023/04/08 06:41:07;;;;;;;28.55;15.18;;;;;;;11.39;58.95;100926.78;4936169;29;20063;-74
2023/04/08 06:43:36;;;;;;;28.48;15.25;;;;;;;11.66;58.18;100922.03;4934469;29;20040;-73
2023/04/08 06:46:05;;;;;;;31.27;16.10;;;;;;;11.88;58.63;100920.88;4935791;29;20067;-74
2023/04/08 06:48:33;;;;;;;28.95;15.65;;;;;;;11.82;56.76;100923.66;4935753;29;20062;-74
2023/04/08 06:51:01;;;;;;;28.55;15.65;;;;;;;11.79;58.12;100926.13;4935958;29;20055;-74
2023/04/08 06:53:30;;;;;;;26.10;14.20;;;;;;;12.13;57.74;100925.47;4935986;29;20047;-74
2023/04/08 06:55:57;;;;;;;29.15;15.25;;;;;;;12.27;56.64;100933.88;4935763;29;20051;-74
2023/04/08 06:58:26;;;;;;;25.90;14.85;;;;;;;12.55;55.59;100926.03;4936062;29;20051;-90
2023/04/08 07:00:56;;;;;;;28.90;13.25;;;;;;;12.73;54.41;100930.03;4902846;29;20055;-91
2023/04/08 07:03:25;;;;;;;25.95;14.20;;;;;;;12.73;54.13;100924.56;4934634;29;20040;-89
2023/04/08 07:05:53;;;;;;;26.23;13.32;;;;;;;12.48;55.16;100920.06;4934827;29;20056;-89
2023/04/08 07:08:21;;;;;;;25.80;14.15;;;;;;;12.56;54.80;100927.69;4935908;29;20059;-89
2023/04/08 07:10:51;;;;;;;26.63;14.98;;;;;;;12.36;56.44;100923.13;4934507;29;20040;-90
2023/04/08 07:13:19;;;;;;;26.08;14.75;;;;;;;12.32;56.39;100930.31;4918520;29;20044;-90
2023/04/08 07:15:47;;;;;;;25.10;14.02;;;;;;;12.34;55.80;100936.31;4918518;29;20044;-90
2023/04/08 07:18:15;;;;;;;25.73;13.50;;;;;;;12.27;55.89;100928.41;4919511;29;20043;-90
2023/04/08 07:20:43;;;;;;;26.33;13.80;;;;;;;12.36;55.87;100923.97;4902806;29;20064;-90
2023/04/08 07:23:11;;;;;;;24.27;15.10;;;;;;;12.32;57.26;100925.63;4933595;29;20052;-91
2023/04/08 07:25:39;;;;;;;26.40;13.15;;;;;;;12.50;55.81;100928.81;4900837;29;20050;-90
2023/04/08 07:28:07;;;;;;;22.63;12.82;;;;;;;12.56;55.51;100924.94;4933323;29;20040;-90
2023/04/08 07:30:35;;;;;;;27.85;15.07;;;;;;;12.77;54.85;100933.03;4918307;29;20051;-91
2023/04/08 07:33:03;;;;;;;27.70;13.75;;;;;;;12.93;54.05;100941.13;4917845;29;20052;-89
2023/04/08 07:35:33;;;;;;;25.48;14.27;;;;;;;12.99;54.43;100943.56;4919577;29;20063;-90
2023/04/08 07:38:01;;;;;;;27.08;13.77;;;;;;;13.26;52.83;100939.47;4933061;29;20415;-89
2023/04/08 07:40:29;;;;;;;23.70;13.70;;;;;;;13.48;52.91;100937.41;4917081;29;20414;-89
2023/04/08 07:42:57;;;;;;;27.15;13.35;;;;;;;13.43;53.28;100938.22;4935848;29;20052;-90
2023/04/08 07:45:25;;;;;;;26.67;13.52;;;;;;;13.10;53.83;100941.53;4924273;29;20052;-90
2023/04/08 07:47:52;;;;;;;24.85;13.85;;;;;;;13.12;53.71;100939.34;4934952;29;20081;-89
2023/04/08 07:50:21;;;;;;;21.98;13.18;;;;;;;13.06;53.20;100940.50;4918461;29;20055;-91
2023/04/08 07:52:49;;;;;;;22.75;12.65;;;;;;;13.19;53.09;100952.75;4917771;29;20419;-90
2023/04/08 07:55:17;;;;;;;24.23;12.88;;;;;;;12.92;54.91;100945.00;4934636;29;20051;-90
2023/04/08 07:57:45;;;;;;;22.00;12.90;;;;;;;13.22;53.26;100962.34;4917841;29;20578;-90
2023/04/08 08:00:20;;;;;;;30.00;13.82;;;;;;;13.19;54.42;100952.75;4916425;29;20418;-90
2023/04/08 08:02:48;;;;;;;26.67;13.80;;;;;;;13.39;53.03;100954.47;4916430;29;20058;-91
2023/04/08 08:05:16;;;;;;;21.15;13.52;;;;;;;13.39;53.68;100942.69;4923271;29;20055;-89
2023/04/08 08:07:45;;;;;;;24.30;13.13;;;;;;;13.49;52.73;100937.09;4936185;29;20051;-90
2023/04/08 08:10:15;;;;;;;22.35;13.07;;;;;;;13.43;52.46;100929.97;4920857;29;20466;-91
2023/04/08 08:12:45;;;;;;;21.73;13.20;;;;;;;13.56;52.30;100937.59;4920636;29;20056;-91
2023/04/08 08:15:16;;;;;;;28.23;14.23;;;;;;;13.54;52.93;100926.03;4918564;29;20052;-90
2023/04/08 08:17:47;;;;;;;26.95;14.13;;;;;;;13.81;51.61;100934.81;4917947;29;20044;-90
2023/04/08 08:20:16;;;;;;;24.88;12.95;;;;;;;13.83;51.21;100930.66;4917337;29;20491;-88
2023/04/08 08:22:45;;;;;;;24.70;13.85;;;;;;;13.89;52.35;100939.66;4901707;29;20052;-90
2023/04/08 08:25:25;;;;;;;25.83;13.88;;;;;;;13.79;52.97;100929.59;4931138;29;20399;-91
2023/04/08 08:27:54;;;;;;;27.45;13.20;;;;;;;14.13;51.14;100938.00;4918293;29;20056;-89
2023/04/08 08:30:25;;;;;;;25.08;14.02;;;;;;;14.15;50.78;100933.84;4933125;29;20894;-89
2023/04/08 08:32:57;;;;;;;22.02;12.80;;;;;;;14.37;50.33;100943.47;4932104;29;20047;-88
2023/04/08 08:35:26;;;;;;;27.20;13.40;;;;;;;14.45;50.19;100937.31;4922076;29;20047;-91
2023/04/08 08:37:54;;;;;;;25.38;14.90;;;;;;;14.56;49.72;100946.22;4917728;29;20051;-90
2023/04/08 08:40:22;;;;;;;24.92;14.52;;;;;;;14.52;50.33;100945.19;4901288;29;20533;-90
2023/04/08 08:42:51;;;;;;;25.17;14.05;;;;;;;14.30;51.73;100945.75;4915972;29;20059;-90
2023/04/08 08:45:20;;;;;;;26.20;15.13;;;;;;;14.47;50.24;100951.56;4899689;29;20134;-88
2023/04/08 08:47:48;;;;;;;25.98;14.57;;;;;;;14.55;50.67;100950.09;4931061;29;20048;-88
2023/04/08 08:50:18;;;;;;;27.35;13.40;;;;;;;14.71;49.62;100949.88;4935121;29;20054;-89
2023/04/08 08:52:50;;;;;;;28.95;14.63;;;;;;;14.84;49.57;100954.66;4935683;29;20051;-88
2023/04/08 08:55:19;;;;;;;26.77;14.75;;;;;;;14.86;49.11;100951.59;4937617;29;20471;-90
2023/04/08 08:58:07;;;;;;;25.83;13.80;;;;;;;14.88;49.01;100949.34;4938049;29;20035;-88
2023/04/08 09:00:41;;;;;;;24.40;14.55;;;;;;;14.89;49.47;100954.56;4920334;29;20055;-89
2023/04/08 09:03:27;;;;;;;27.08;14.48;;;;;;;14.88;49.42;100950.19;4905165;29;20055;-89
2023/04/08 09:05:58;;;;;;;27.40;15.13;;;;;;;14.99;49.78;100948.06;4940709;29;20044;-91
2023/04/08 09:08:27;;;;;;;26.63;13.95;;;;;;;14.91;48.70;100946.81;4937059;29;20055;-86
2023/04/08 09:11:10;;;;;;;28.73;13.43;;;;;;;15.11;48.24;100946.78;4937127;29;20430;-89
2023/04/08 09:13:38;;;;;;;26.77;13.75;;;;;;;15.01;47.39;100945.81;4920041;29;20055;-88
2023/04/08 09:16:08;;;;;;;29.23;14.65;;;;;;;15.12;48.19;100940.16;4938009;29;20051;-88
2023/04/08 09:18:38;;;;;;;27.52;14.48;;;;;;;15.10;46.71;100945.97;4935992;29;20051;-88
2023/04/08 09:21:07;;;;;;;28.77;14.38;;;;;;;15.05;47.12;100940.53;4932362;29;20047;-89
2023/04/08 09:23:45;;;;;;;27.30;14.07;;;;;;;15.39;46.27;100941.34;4903982;29;20056;-87
2023/04/08 09:26:15;;;;;;;26.42;13.48;;;;;;;15.30;45.21;100942.03;4937396;29;20059;-86
2023/04/08 09:28:56;;;;;;;25.08;13.40;;;;;;;15.34;44.42;100944.19;4936271;29;20047;-87
2023/04/08 09:31:29;;;;;;;24.10;13.15;;;;;;;15.57;44.89;100939.63;4936737;29;20055;-88
2023/04/08 09:34:08;;;;;;;26.42;14.10;;;;;;;15.76;44.71;100935.94;4935971;29;20059;-87
2023/04/08 09:36:36;;;;;;;27.35;13.90;;;;;;;15.76;43.01;100936.78;4937306;29;20059;-88
2023/04/08 09:39:05;;;;;;;27.65;13.27;;;;;;;15.96;43.94;100929.22;4935578;29;20403;-88
2023/04/08 09:41:34;;;;;;;29.08;13.70;;;;;;;16.05;43.54;100938.44;4917270;29;20052;-88
2023/04/08 09:44:04;;;;;;;28.35;13.68;;;;;;;16.10;42.39;100941.09;4930028;29;20055;-88
2023/04/08 09:46:55;;;;;;;28.13;13.07;;;;;;;16.10;42.73;100938.31;4937557;29;20059;-88
2023/04/08 09:49:58;;;;;;;26.25;13.38;;;;;;;16.04;41.30;100934.00;4935633;29;20047;-89
2023/04/08 09:52:33;;;;;;;26.67;13.07;;;;;;;15.96;40.57;100940.25;4933487;29;20402;-89
2023/04/08 09:55:03;;;;;;;;;;;;;;;15.99;40.97;100934.13;4935369;29;20066;-89
2023/04/08 09:57:40;;;;;;;27.65;13.07;;;;;;;16.15;40.48;100931.03;4934911;29;19922;-91
2023/04/08 10:00:13;;;;;;;24.55;12.27;;;;;;;16.21;40.46;100936.16;4919016;29;20059;-90
2023/04/08 10:03:18;;;;;;;27.15;12.88;;;;;;;16.29;39.86;100925.50;4936440;29;20048;-89
2023/04/08 10:05:46;;;;;;;;;;;;;;;16.41;40.07;100931.28;4933876;29;20059;-86
2023/04/08 10:08:15;;;;;;;27.45;12.57;;;;;;;16.55;38.54;100931.25;4934618;29;19938;-87
2023/04/08 10:10:44;;;;;;;25.75;12.38;;;;;;;16.64;38.02;100934.09;4936409;29;20050;-89
2023/04/08 10:13:14;;;;;;;26.33;13.25;;;;;;;16.74;38.19;100924.72;4918051;29;20063;-89
2023/04/08 10:15:44;;;;;;;28.33;13.70;;;;;;;16.94;38.92;100928.94;4929977;29;20050;-88
2023/04/08 10:18:19;;;;;;;26.00;12.75;;;;;;;17.22;38.83;100922.47;4936690;29;20047;-88
2023/04/08 10:20:48;;;;;;;22.48;12.23;;;;;;;17.26;36.58;100927.03;4936130;29;20039;-88
2023/04/08 10:23:17;;;;;;;25.92;12.23;;;;;;;17.22;36.21;100922.47;4935686;29;20040;-87
2023/04/08 10:25:47;;;;;;;23.85;12.35;;;;;;;17.30;36.14;100921.72;4936345;29;20052;-88
2023/04/08 10:28:16;;;;;;;29.55;12.57;;;;;;;17.55;36.90;100925.72;4935993;29;20499;-88
2023/04/08 10:30:46;;;;;;;26.17;11.52;;;;;;;17.51;36.12;100926.69;4934550;29;20048;-86
2023/04/08 10:33:30;;;;;;;24.35;11.52;;;;;;;17.57;36.79;100911.56;4935142;29;20052;-83
2023/04/08 10:36:10;;;;;;;23.85;11.13;;;;;;;17.45;36.92;100918.50;4933818;29;20067;-86
2023/04/08 10:38:40;;;;;;;24.98;13.25;;;;;;;17.20;37.11;100917.25;4935078;29;20059;-86
2023/04/08 10:41:12;;;;;;;27.85;12.88;;;;;;;17.30;36.46;100908.69;4935017;29;20052;-86
2023/04/08 10:43:41;;;;;;;25.35;11.90;;;;;;;17.32;36.30;100913.91;4935676;29;20521;-87
2023/04/08 10:46:11;;;;;;;23.70;11.35;;;;;;;17.28;36.63;100916.50;4936077;29;20035;-88
2023/04/08 10:48:39;;;;;;;25.48;12.20;;;;;;;17.33;36.39;100893.41;4934440;29;20044;-86
2023/04/08 10:51:07;;;;;;;23.55;12.20;;;;;;;17.69;34.72;100895.16;4936123;29;20051;-86
2023/04/08 10:53:38;;;;;;;25.85;11.27;;;;;;;17.46;35.16;100900.78;4934378;29;20040;-87
2023/04/08 10:56:11;;;;;;;24.67;11.10;;;;;;;17.96;35.00;100907.13;4935230;29;20376;-89
2023/04/08 10:58:55;;;;;;;21.92;10.90;;;;;;;18.18;32.05;100897.09;4934372;29;20047;-86
2023/04/08 11:01:23;;;;;;;21.77;10.95;;;;;;;18.34;32.82;100900.19;4932330;29;20067;-87
2023/04/08 11:03:51;;;;;;;22.77;11.23;;;;;;;18.22;34.05;100903.63;4934722;29;20056;-88
2023/04/08 11:06:20;;;;;;;25.52;10.75;;;;;;;18.11;33.40;100908.66;4935538;29;20044;-88
2023/04/08 11:08:48;;;;;;;24.63;10.88;;;;;;;18.06;33.94;100908.81;4934592;29;20058;-86
2023/04/08 11:11:18;;;;;;;24.70;10.82;;;;;;;18.05;33.08;100903.56;4934468;29;20055;-87
2023/04/08 11:13:47;;;;;;;24.90;10.82;;;;;;;17.67;33.04;100897.44;4933593;29;20403;-87
2023/04/08 11:16:24;;;;;;;24.08;11.10;;;;;;;17.36;32.61;100903.00;4934921;29;20044;-87
2023/04/08 11:18:53;;;;;;;26.17;12.02;;;;;;;17.39;32.64;100894.88;4918727;29;20048;-87
2023/04/08 11:21:23;;;;;;;24.13;10.15;;;;;;;17.33;32.89;100887.88;4935225;29;20403;-87
2023/04/08 11:23:51;;;;;;;22.00;9.93;;;;;;;17.02;34.01;100894.19;4936252;29;20079;-87
2023/04/08 11:26:22;;;;;;;22.13;10.40;;;;;;;16.80;33.59;100895.84;4927186;29;20058;-85